Time;durP1;ratioP1;P1;durP2;ratioP2;P2;SDS_P1;SDS_P2;PMS_P1;PMS_P2;Temp;Humidity;BMP_temperature;BMP_pressure;BME280_temperature;BME280_humidity;BME280_pressure;Samples;Min_cycle;Max_cycle;Signal;HPM_P1;HPM_P2
2023/09/14 07:23:13;;;;;;;10.63;7.70;;;;;;;-145.79;85.48;77898.75;5288094;28;20393;-67
2023/09/14 07:25:44;;;;;;;10.00;7.22;;;;;;;-145.79;85.16;77905.09;5287675;28;20033;-66
2023/09/14 07:28:17;;;;;;;10.48;7.47;;;;;;;-145.79;85.56;77898.75;5289177;28;20029;-66
2023/09/14 07:30:50;;;;;;;12.77;7.57;;;;;;;-145.79;85.38;77892.38;5289047;28;20058;-66
2023/09/14 07:33:24;;;;;;;9.77;7.30;;;;;;;-145.79;85.48;77860.56;5288250;28;20383;-65
2023/09/14 07:35:55;;;;;;;8.75;5.75;;;;;;;-145.79;85.85;77843.63;5283354;28;20499;-65
2023/09/14 07:38:27;;;;;;;12.98;6.75;;;;;;;-145.79;84.74;77856.34;5283368;28;20033;-66
2023/09/14 07:40:58;;;;;;;11.05;7.55;;;;;;;-145.79;84.94;77839.38;5291104;28;20032;-65
2023/09/14 07:43:29;;;;;;;8.48;6.35;;;;;;;-145.79;83.50;77813.94;5285229;28;20048;-66
2023/09/14 07:46:01;;;;;;;13.75;7.07;;;;;;;-145.79;82.89;77809.69;5278233;28;20083;-66
2023/09/14 07:48:32;;;;;;;13.63;7.60;;;;;;;-145.79;82.46;77822.41;5291996;28;20048;-65
2023/09/14 07:51:03;;;;;;;13.52;7.40;;;;;;;-145.79;82.26;77807.59;5281983;28;20078;-65
2023/09/14 07:53:35;;;;;;;12.80;6.80;;;;;;;-145.79;82.06;77794.88;5284710;28;20429;-65
2023/09/14 07:56:06;;;;;;;9.63;6.63;;;;;;;-145.79;82.72;77775.78;5287373;28;20370;-66
2023/09/14 07:58:37;;;;;;;11.00;6.70;;;;;;;-145.79;82.38;77763.06;5284469;28;20085;-64
2023/09/14 08:01:08;;;;;;;8.18;6.35;;;;;;;-145.79;81.55;77754.59;5283255;28;20032;-65
2023/09/14 08:03:40;;;;;;;7.68;6.43;;;;;;;-145.79;81.76;77750.34;5291239;28;20024;-65
2023/09/14 08:06:11;;;;;;;10.70;7.07;;;;;;;-145.79;80.82;77735.50;5278209;28;20063;-66
2023/09/14 08:08:42;;;;;;;10.75;6.40;;;;;;;-145.79;80.53;77739.75;5286591;28;20051;-64
2023/09/14 08:11:14;;;;;;;12.02;7.30;;;;;;;-145.79;81.12;77731.28;5281211;28;20032;-66
2023/09/14 08:13:45;;;;;;;9.32;6.82;;;;;;;-145.79;80.83;77731.28;5280745;28;20020;-66
2023/09/14 08:16:16;;;;;;;8.13;6.40;;;;;;;-145.79;80.92;77716.44;5283880;28;20024;-66
2023/09/14 08:18:48;;;;;;;13.32;8.13;;;;;;;-145.79;79.71;77727.03;5277692;28;20037;-66
2023/09/14 08:21:19;;;;;;;11.10;7.80;;;;;;;-145.79;79.53;77731.28;5285156;28;20059;-68
2023/09/14 08:23:53;;;;;;;10.55;8.07;;;;;;;-145.79;79.97;77724.91;5282433;28;20033;-68
2023/09/14 08:26:24;;;;;;;11.88;7.88;;;;;;;-145.79;79.74;77720.66;5289593;28;20024;-68
2023/09/14 08:28:55;;;;;;;11.75;8.27;;;;;;;-145.79;79.66;77724.91;5290662;28;20035;-68
2023/09/14 08:31:27;;;;;;;10.60;8.05;;;;;;;-145.79;79.21;77724.91;5288941;28;20472;-67
2023/09/14 08:33:58;;;;;;;11.43;8.43;;;;;;;-145.79;79.07;77703.72;5275870;28;20060;-67
2023/09/14 08:36:29;;;;;;;14.45;9.10;;;;;;;-145.79;79.29;77710.06;5273267;28;20104;-68
2023/09/14 08:39:01;;;;;;;15.88;10.40;;;;;;;-145.79;78.29;77703.72;5271906;28;20450;-68
2023/09/14 08:41:37;;;;;;;10.05;7.78;;;;;;;-145.79;78.70;77699.47;5274492;28;20041;-70
2023/09/14 08:44:08;;;;;;;11.45;8.57;;;;;;;-145.79;78.73;77669.78;5272115;28;20097;-70
2023/09/14 08:46:41;;;;;;;13.63;8.23;;;;;;;-145.79;77.60;77674.03;5272365;28;20024;-68
2023/09/14 08:49:15;;;;;;;9.73;8.73;;;;;;;-145.79;76.84;77665.56;5272271;28;20029;-69
2023/09/14 08:51:50;;;;;;;15.07;10.63;;;;;;;-145.79;76.21;77678.28;5269046;28;20108;-69
2023/09/14 08:54:21;;;;;;;14.25;9.85;;;;;;;-145.79;76.12;77652.84;5275723;28;20017;-68
2023/09/14 08:56:53;;;;;;;11.48;10.00;;;;;;;-145.79;75.55;77657.06;5270442;28;20043;-69
2023/09/14 08:59:26;;;;;;;11.48;10.27;;;;;;;-145.79;75.28;77663.44;5273675;28;20024;-68
2023/09/14 09:01:59;;;;;;;14.13;10.00;;;;;;;-145.79;75.01;77669.78;5272565;28;20035;-69
2023/09/14 09:04:31;;;;;;;13.15;10.40;;;;;;;-145.79;74.87;77657.06;5272221;28;20025;-69
2023/09/14 09:07:03;;;;;;;12.50;9.65;;;;;;;-145.79;73.67;77648.59;5273346;28;20075;-68
2023/09/14 09:09:34;;;;;;;12.73;9.85;;;;;;;-145.79;74.55;77627.41;5269854;28;20017;-72
2023/09/14 09:12:06;;;;;;;12.98;10.65;;;;;;;-145.79;73.19;77640.13;5272824;28;20111;-67
2023/09/14 09:14:40;;;;;;;12.10;8.45;;;;;;;-145.79;71.65;77631.63;5264084;28;20044;-67
2023/09/14 09:17:11;;;;;;;12.40;8.45;;;;;;;-145.79;70.65;77635.88;5270996;28;20054;-66
2023/09/14 09:19:47;;;;;;;10.20;7.50;;;;;;;-145.79;69.68;77625.28;5268194;28;20028;-67
2023/09/14 09:22:19;;;;;;;10.30;7.72;;;;;;;-145.79;69.42;77640.13;5271996;28;20044;-67
2023/09/14 09:24:55;;;;;;;9.23;7.05;;;;;;;-145.79;71.66;77599.84;5268649;28;20027;-67
2023/09/14 09:27:27;;;;;;;9.30;7.25;;;;;;;-145.79;72.86;77597.72;5273109;28;20090;-67
2023/09/14 09:29:59;;;;;;;7.70;6.60;;;;;;;-145.79;72.46;77551.09;5272225;28;20494;-67
2023/09/14 09:32:30;;;;;;;11.35;7.57;;;;;;;-145.79;71.38;77555.31;5274145;28;20537;-67
2023/09/14 09:35:22;;;;;;;9.00;6.88;;;;;;;-145.79;70.14;77555.31;5271662;28;20029;-67
2023/09/14 09:37:55;;;;;;;8.52;6.20;;;;;;;-145.79;70.95;77502.34;5260248;28;20450;-66
2023/09/14 09:40:31;;;;;;;7.05;5.95;;;;;;;-145.79;71.14;77525.66;5265532;28;20055;-67
2023/09/14 09:43:04;;;;;;;6.82;5.25;;;;;;;-145.79;69.74;77498.09;5274164;28;20063;-67
2023/09/14 09:45:39;;;;;;;9.55;7.30;;;;;;;-145.79;68.82;77529.88;5270564;28;20028;-67
2023/09/14 09:48:11;;;;;;;10.40;8.23;;;;;;;-145.79;68.89;77536.25;5271010;28;20032;-66
2023/09/14 09:50:43;;;;;;;7.82;5.78;;;;;;;-145.79;71.38;77521.41;5269497;28;20032;-67
2023/09/14 09:53:15;;;;;;;11.52;7.20;;;;;;;-145.79;67.68;77534.13;5265591;28;20357;-66
2023/09/14 09:55:46;;;;;;;10.95;7.00;;;;;;;-145.79;66.38;77525.66;5268001;28;20021;-66
2023/09/14 09:58:19;;;;;;;7.47;5.95;;;;;;;-145.79;64.93;77544.72;5270649;28;20511;-66
2023/09/14 10:00:56;;;;;;;10.80;6.53;;;;;;;-145.79;66.08;77529.88;5270502;28;20032;-67
2023/09/14 10:03:29;;;;;;;9.40;6.40;;;;;;;-145.79;66.57;77519.28;5261361;28;20388;-66
2023/09/14 10:06:01;;;;;;;9.35;6.70;;;;;;;-145.79;66.09;77529.88;5266342;28;20028;-67
2023/09/14 10:08:32;;;;;;;8.68;6.57;;;;;;;-145.79;64.28;77542.59;5275206;28;20017;-67
2023/09/14 10:11:05;;;;;;;8.35;5.82;;;;;;;-145.79;64.13;77565.94;5267505;28;20036;-66
2023/09/14 10:13:36;;;;;;;6.75;5.80;;;;;;;-145.79;65.12;77557.44;5280737;28;20368;-66
2023/09/14 10:16:09;;;;;;;7.57;5.55;;;;;;;-145.79;64.72;77536.25;5280883;28;20028;-67
2023/09/14 10:18:42;;;;;;;8.55;6.57;;;;;;;-145.79;64.55;77534.13;5269841;28;20029;-67
2023/09/14 10:21:14;;;;;;;7.15;6.45;;;;;;;-145.79;63.88;77517.16;5248811;28;20025;-67
2023/09/14 10:23:47;;;;;;;6.32;5.25;;;;;;;-145.79;63.03;77517.16;5275112;28;20017;-67
2023/09/14 10:26:19;;;;;;;8.70;5.20;;;;;;;-145.79;61.29;77523.53;5269694;28;20040;-67
2023/09/14 10:28:50;;;;;;;5.82;4.60;;;;;;;-145.79;62.94;77491.75;5274007;28;20036;-67
2023/09/14 10:31:24;;;;;;;6.18;4.45;;;;;;;-145.79;62.24;77476.91;5262064;28;20033;-66
2023/09/14 10:33:59;;;;;;;7.93;5.00;;;;;;;-145.79;62.24;77483.25;5267617;28;20036;-66
2023/09/14 10:36:32;;;;;;;5.70;4.20;;;;;;;-145.79;62.11;77470.53;5271577;28;20356;-66
2023/09/14 10:39:06;;;;;;;6.82;4.45;;;;;;;-145.79;62.77;77455.69;5271681;28;20124;-67
2023/09/14 10:41:37;;;;;;;6.30;4.53;;;;;;;-145.79;61.33;77442.97;5272971;28;20024;-66
2023/09/14 10:44:08;;;;;;;5.60;4.43;;;;;;;-145.79;60.62;77423.91;5270380;28;20067;-66
2023/09/14 10:46:42;;;;;;;9.95;4.80;;;;;;;-145.79;59.60;77432.38;5270396;28;20033;-66
2023/09/14 10:49:14;;;;;;;6.70;4.18;;;;;;;-145.79;59.86;77434.50;5272742;28;20039;-66
2023/09/14 10:51:47;;;;;;;5.38;4.15;;;;;;;-145.79;60.59;77398.47;5272479;28;20038;-65
2023/09/14 10:54:24;;;;;;;7.00;3.67;;;;;;;-145.79;60.12;77415.44;5270743;28;20388;-66
2023/09/14 10:56:58;;;;;;;6.03;4.07;;;;;;;-145.79;58.86;77413.31;5270887;28;20025;-66
2023/09/14 10:59:58;;;;;;;8.05;6.60;;;;;;;-145.79;60.33;77373.03;5274576;28;20492;-66
2023/09/14 11:02:39;;;;;;;7.10;4.63;;;;;;;-145.79;58.45;77370.91;5262465;28;20053;-67
2023/09/14 11:05:23;;;;;;;4.40;3.83;;;;;;;-145.79;59.73;77356.06;5272715;28;20364;-66
2023/09/14 11:08:04;;;;;;;25.63;23.23;;;;;;;-145.79;58.60;77341.25;5273489;28;20021;-66
2023/09/14 11:10:37;;;;;;;6.30;4.07;;;;;;;-145.79;56.34;77353.97;5270150;28;20029;-66
2023/09/14 11:13:20;;;;;;;6.07;4.10;;;;;;;-145.79;58.23;77307.31;5264057;28;20082;-66
2023/09/14 11:16:10;;;;;;;7.03;3.47;;;;;;;-145.79;56.07;77313.69;5268972;28;20494;-66
2023/09/14 11:18:44;;;;;;;5.53;3.17;;;;;;;-145.79;56.29;77307.31;5262382;28;20122;-66
2023/09/14 11:21:31;;;;;;;9.68;4.57;;;;;;;-145.79;56.77;77294.59;5269519;28;20049;-67
2023/09/14 11:24:03;;;;;;;7.32;4.68;;;;;;;-145.79;55.67;77281.91;5274134;28;20044;-67
2023/09/14 11:26:39;;;;;;;6.63;3.17;;;;;;;-145.79;55.48;77277.66;5270743;28;20047;-66
2023/09/14 11:29:12;;;;;;;7.60;4.28;;;;;;;-145.79;54.82;77284.00;5268916;28;20056;-66
2023/09/14 11:31:43;;;;;;;5.88;3.40;;;;;;;-145.79;53.19;77284.00;5272816;28;20028;-66
2023/09/14 11:34:16;;;;;;;5.00;3.58;;;;;;;-145.79;54.38;77281.91;5273539;28;20427;-66
2023/09/14 11:36:51;;;;;;;6.07;4.05;;;;;;;-145.79;52.97;77286.13;5269379;28;20431;-67
2023/09/14 11:39:22;;;;;;;4.38;2.70;;;;;;;-145.79;53.61;77256.47;5269658;28;20059;-65
2023/09/14 11:42:00;;;;;;;5.78;2.65;;;;;;;-145.79;52.40;77262.81;5272355;28;20495;-67
2023/09/14 11:44:45;;;;;;;6.32;4.90;;;;;;;-145.79;52.11;77254.34;5268140;28;20033;-66
2023/09/14 11:47:17;;;;;;;5.72;4.05;;;;;;;-145.79;53.30;77250.09;5268419;28;20024;-67
2023/09/14 11:49:49;;;;;;;4.45;2.67;;;;;;;-145.79;53.12;77228.91;5270530;28;20021;-66
2023/09/14 11:52:21;;;;;;;6.72;4.05;;;;;;;-145.79;52.97;77199.22;5273021;28;20082;-66
2023/09/14 11:54:52;;;;;;;6.45;4.13;;;;;;;-145.79;50.87;77203.47;5269873;28;20025;-66
2023/09/14 11:57:28;;;;;;;4.38;3.03;;;;;;;-145.79;50.39;77205.59;5268956;28;20017;-66
2023/09/14 11:59:59;;;;;;;4.95;2.90;;;;;;;-145.79;50.37;77207.72;5269689;28;20117;-68
2023/09/14 12:02:31;;;;;;;4.35;3.00;;;;;;;-145.79;51.54;77214.06;5270475;28;20112;-65
2023/09/14 12:05:02;;;;;;;3.45;2.58;;;;;;;-145.79;50.79;77207.72;5270025;28;20060;-66
2023/09/14 12:07:34;;;;;;;4.65;3.00;;;;;;;-145.79;51.93;77158.97;5273302;28;20021;-65
2023/09/14 12:10:19;;;;;;;7.28;3.40;;;;;;;-145.79;52.58;77158.97;5275940;28;20025;-65
2023/09/14 12:12:50;;;;;;;8.02;7.20;;;;;;;-145.79;50.03;77152.59;5270109;28;20125;-66
2023/09/14 12:15:22;;;;;;;6.25;3.60;;;;;;;-145.79;50.14;77142.00;5274661;28;20017;-67
2023/09/14 12:17:54;;;;;;;2.72;2.45;;;;;;;-145.79;48.24;77169.56;5274629;28;20036;-67
2023/09/14 12:20:26;;;;;;;2.58;2.13;;;;;;;-145.79;48.19;77224.66;5267916;28;20029;-67
2023/09/14 12:22:57;;;;;;;3.80;3.00;;;;;;;-145.79;50.38;77152.59;5276748;28;20056;-66
2023/09/14 12:25:29;;;;;;;5.80;2.90;;;;;;;-145.79;49.95;77131.41;5273917;28;20502;-67
2023/09/14 12:28:03;;;;;;;3.97;2.67;;;;;;;-145.79;48.13;77154.72;5272617;28;20025;-67
2023/09/14 12:30:36;;;;;;;5.13;3.47;;;;;;;-145.79;48.66;77139.88;5273560;28;20036;-67
2023/09/14 12:33:09;;;;;;;5.32;2.50;;;;;;;-145.79;49.53;77099.63;5276269;28;20610;-67
2023/09/14 12:35:42;;;;;;;17.67;15.98;;;;;;;-145.79;50.00;77097.50;5274258;28;20020;-66
2023/09/14 12:38:13;;;;;;;8.93;3.95;;;;;;;-145.79;50.21;77105.97;5271014;28;20032;-66
2023/09/14 12:40:45;;;;;;;4.25;3.60;;;;;;;-145.79;50.20;77084.78;5274445;28;20021;-66
2023/09/14 12:43:18;;;;;;;4.25;2.80;;;;;;;-145.79;50.17;77082.66;5276767;28;20028;-66
2023/09/14 12:45:52;;;;;;;5.55;3.72;;;;;;;-145.79;51.16;77101.72;5272992;28;20046;-66
2023/09/14 12:48:28;;;;;;;6.22;5.13;;;;;;;-145.79;50.94;77131.41;5273050;28;20079;-66
2023/09/14 12:51:02;;;;;;;7.53;4.07;;;;;;;-145.79;51.84;77139.88;5275509;28;20036;-66
2023/09/14 12:53:40;;;;;;;4.93;3.87;;;;;;;-145.79;51.86;77137.75;5267656;28;20033;-69
2023/09/14 12:56:12;;;;;;;5.47;3.90;;;;;;;-145.79;51.41;77097.50;5273212;28;20025;-66
2023/09/14 12:58:43;;;;;;;5.35;3.40;;;;;;;-145.79;50.81;77097.50;5272353;28;20021;-66
2023/09/14 13:01:15;;;;;;;6.70;5.80;;;;;;;-145.79;51.19;77086.91;5274506;28;20025;-66
2023/09/14 13:03:46;;;;;;;7.93;4.20;;;;;;;-145.79;50.09;77076.31;5271949;28;20021;-66
2023/09/14 13:06:18;;;;;;;4.45;3.53;;;;;;;-145.79;49.83;77089.00;5264798;28;20027;-67
2023/09/14 13:08:52;;;;;;;7.32;5.82;;;;;;;-145.79;50.39;77091.13;5275390;28;20039;-66
2023/09/14 13:11:31;;;;;;;4.53;3.47;;;;;;;-145.79;50.70;77116.56;5262291;28;20032;-66
2023/09/14 13:14:05;;;;;;;4.68;3.60;;;;;;;-145.79;52.04;77122.94;5267216;28;20036;-66
2023/09/14 13:16:52;;;;;;;4.88;3.50;;;;;;;-145.79;52.10;77108.09;5276251;28;20478;-66
2023/09/14 13:19:25;;;;;;;3.95;3.55;;;;;;;-145.79;51.66;77108.09;5272835;28;20039;-65
2023/09/14 13:22:05;;;;;;;4.85;3.50;;;;;;;-145.79;52.87;77110.22;5268045;28;20044;-67
2023/09/14 13:24:37;;;;;;;4.85;3.00;;;;;;;-145.79;51.19;77139.88;5279205;28;20025;-68
2023/09/14 13:27:08;;;;;;;4.88;3.30;;;;;;;-145.79;51.28;77129.28;5271724;28;20650;-67
2023/09/14 13:29:39;;;;;;;3.97;2.90;;;;;;;-145.79;51.87;77101.72;5274046;28;20024;-66
2023/09/14 13:32:12;;;;;;;9.30;8.25;;;;;;;-145.79;51.38;77095.38;5273024;28;20035;-66
2023/09/14 13:34:43;;;;;;;7.95;7.15;;;;;;;-145.79;50.84;77120.81;5264126;28;20476;-66
2023/09/14 13:37:15;;;;;;;6.50;3.80;;;;;;;-145.79;50.89;77122.94;5261439;28;20024;-66
2023/09/14 13:39:46;;;;;;;6.43;3.90;;;;;;;-145.79;51.65;77127.16;5256082;28;20028;-65
2023/09/14 13:42:17;;;;;;;4.50;3.28;;;;;;;-145.79;52.62;77127.16;5265901;28;20028;-66
2023/09/14 13:44:49;;;;;;;54.55;49.53;;;;;;;-145.79;52.59;77120.81;5271157;28;20032;-67
2023/09/14 13:47:20;;;;;;;13.73;12.00;;;;;;;-145.79;52.41;77144.13;5277622;28;20024;-66
2023/09/14 13:49:51;;;;;;;5.32;4.82;;;;;;;-145.79;52.88;77139.88;5272806;28;20029;-67
2023/09/14 13:52:23;;;;;;;6.13;4.88;;;;;;;-145.79;52.98;77139.88;5275999;28;20548;-67
2023/09/14 13:54:54;;;;;;;5.47;4.50;;;;;;;-145.79;53.83;77129.28;5267651;28;20037;-67
2023/09/14 13:57:26;;;;;;;27.63;24.23;;;;;;;-145.79;52.48;77139.88;5270528;28;20564;-66
2023/09/14 13:59:57;;;;;;;5.72;4.38;;;;;;;-145.79;52.79;77114.44;5270154;28;20036;-67
2023/09/14 14:02:28;;;;;;;6.50;4.38;;;;;;;-145.79;52.27;77110.22;5257504;28;20065;-67
2023/09/14 14:05:00;;;;;;;5.20;4.32;;;;;;;-145.79;52.71;77093.25;5271427;28;20116;-66
2023/09/14 14:07:31;;;;;;;4.20;3.33;;;;;;;-145.79;52.40;77078.41;5267539;28;20032;-66
2023/09/14 14:10:05;;;;;;;5.95;3.90;;;;;;;-145.79;51.69;77063.59;5260033;28;20028;-66
2023/09/14 14:12:37;;;;;;;8.40;4.32;;;;;;;-145.79;51.63;77052.97;5251231;28;20033;-65
2023/09/14 14:15:09;;;;;;;4.47;3.85;;;;;;;-145.79;52.22;77055.09;5274451;28;20143;-66
2023/09/14 14:17:42;;;;;;;4.18;3.40;;;;;;;-145.79;51.17;77042.38;5270194;28;20448;-68
2023/09/14 14:20:13;;;;;;;4.15;3.75;;;;;;;-145.79;51.31;77021.19;5252278;28;20159;-66
2023/09/14 14:22:44;;;;;;;7.50;3.45;;;;;;;-145.79;50.92;77019.06;5273696;28;20548;-66
2023/09/14 14:25:16;;;;;;;8.35;7.55;;;;;;;-145.79;51.46;77008.47;5271397;28;20047;-65
2023/09/14 14:27:47;;;;;;;6.53;4.03;;;;;;;-145.79;50.81;77014.84;5273318;28;20024;-67
2023/09/14 14:30:19;;;;;;;57.42;51.63;;;;;;;-145.79;51.18;77000.00;5273702;28;20029;-66
2023/09/14 14:32:50;;;;;;;6.38;4.75;;;;;;;-145.79;50.72;77023.31;5269397;28;20082;-66
2023/09/14 14:35:21;;;;;;;5.82;4.45;;;;;;;-145.79;51.58;77046.63;5268210;28;20035;-66
2023/09/14 14:37:53;;;;;;;3.95;3.60;;;;;;;-145.79;51.28;77050.88;5278667;28;20033;-67
2023/09/14 14:40:24;;;;;;;4.30;3.72;;;;;;;-145.79;50.14;77072.06;5269331;28;20380;-66
2023/09/14 14:42:56;;;;;;;7.13;3.47;;;;;;;-145.79;51.73;77069.94;5263497;28;20029;-65
2023/09/14 14:45:27;;;;;;;5.10;3.80;;;;;;;-145.79;52.83;77084.78;5269832;28;20033;-68
2023/09/14 14:47:58;;;;;;;16.52;13.68;;;;;;;-145.79;53.12;77080.53;5273259;28;20158;-67
2023/09/14 14:50:30;;;;;;;16.27;14.70;;;;;;;-145.79;52.89;77089.00;5273614;28;20028;-67
2023/09/14 14:53:01;;;;;;;4.95;4.32;;;;;;;-145.79;52.75;77080.53;5264978;28;20475;-67
2023/09/14 14:55:33;;;;;;;11.35;10.10;;;;;;;-145.79;52.51;77076.31;5269520;28;20028;-68
2023/09/14 14:58:04;;;;;;;9.75;8.73;;;;;;;-145.79;51.55;77095.38;5270252;28;20032;-68
2023/09/14 15:00:35;;;;;;;5.30;3.72;;;;;;;-145.79;51.55;77082.66;5272053;28;20032;-67
2023/09/14 15:03:07;;;;;;;5.38;3.35;;;;;;;-145.79;51.52;77065.69;5272082;28;20060;-68
2023/09/14 15:05:39;;;;;;;4.57;2.95;;;;;;;-145.79;51.90;77046.63;5274091;28;20024;-68
2023/09/14 15:08:10;;;;;;;4.68;3.00;;;;;;;-145.79;51.74;77033.91;5270187;28;20032;-69
2023/09/14 15:10:42;;;;;;;4.15;3.35;;;;;;;-145.79;50.33;77038.16;5261195;28;20169;-68
2023/09/14 15:13:13;;;;;;;6.25;3.25;;;;;;;-145.79;50.47;77025.44;5269062;28;20036;-69
2023/09/14 15:15:44;;;;;;;6.18;3.85;;;;;;;-145.79;49.73;77042.38;5273835;28;20028;-69
2023/09/14 15:18:15;;;;;;;4.60;3.53;;;;;;;-145.79;50.60;77025.44;5272085;28;20107;-68
2023/09/14 15:20:47;;;;;;;5.75;3.05;;;;;;;-145.79;51.33;77025.44;5269245;28;20021;-69
2023/09/14 15:23:19;;;;;;;4.63;2.90;;;;;;;-145.79;51.40;77016.94;5270800;28;20057;-68
2023/09/14 15:25:53;;;;;;;6.05;3.50;;;;;;;-145.79;51.25;77000.00;5273759;28;20111;-69
2023/09/14 15:28:24;;;;;;;5.97;3.45;;;;;;;-145.79;50.31;77019.06;5261942;28;20026;-68
2023/09/14 15:30:56;;;;;;;4.18;3.10;;;;;;;-145.79;50.97;77012.72;5273970;28;20059;-68
2023/09/14 15:33:27;;;;;;;4.22;2.90;;;;;;;-145.79;51.12;76995.75;5272323;28;20082;-67
2023/09/14 15:35:58;;;;;;;6.10;3.28;;;;;;;-145.79;50.92;76989.41;5269300;28;20119;-68
2023/09/14 15:38:30;;;;;;;4.03;3.30;;;;;;;-145.79;49.81;76995.75;5270580;28;20028;-68
2023/09/14 15:41:01;;;;;;;4.25;3.08;;;;;;;-145.79;49.78;76997.88;5273852;28;20032;-67
2023/09/14 15:43:32;;;;;;;5.07;3.08;;;;;;;-145.79;50.47;76970.31;5268186;28;20037;-68
2023/09/14 15:46:04;;;;;;;5.78;3.00;;;;;;;-145.79;49.84;76974.56;5270764;28;20024;-68
2023/09/14 15:48:35;;;;;;;7.25;3.42;;;;;;;-145.79;50.42;76983.03;5272146;28;20547;-68
2023/09/14 15:51:06;;;;;;;3.80;2.90;;;;;;;-145.79;50.47;76961.84;5270001;28;20052;-69
2023/09/14 15:53:38;;;;;;;3.45;3.00;;;;;;;-145.79;49.88;76974.56;5269431;28;20113;-68
2023/09/14 15:56:10;;;;;;;3.30;2.95;;;;;;;-145.79;49.79;76995.75;5277106;28;20051;-68
2023/09/14 15:58:42;;;;;;;5.68;2.80;;;;;;;-145.79;50.00;76976.69;5277696;28;20383;-68
2023/09/14 16:01:13;;;;;;;3.67;3.10;;;;;;;-145.79;49.79;76995.75;5267094;28;20020;-68
2023/09/14 16:03:44;;;;;;;5.72;3.00;;;;;;;-145.79;49.48;77002.13;5274693;28;20384;-69
2023/09/14 16:06:16;;;;;;;3.85;3.25;;;;;;;-145.79;50.14;77006.34;5270924;28;20055;-70
2023/09/14 16:08:47;;;;;;;3.47;3.15;;;;;;;-145.79;50.41;77014.84;5277246;28;20031;-70
2023/09/14 16:11:19;;;;;;;5.03;2.67;;;;;;;-145.79;51.10;77021.19;5273277;28;20033;-68
2023/09/14 16:13:50;;;;;;;3.20;2.78;;;;;;;-145.79;50.15;77008.47;5272060;28;20079;-68
2023/09/14 16:16:21;;;;;;;5.43;3.33;;;;;;;-145.79;50.50;77000.00;5273527;28;20073;-68
2023/09/14 16:18:53;;;;;;;4.68;3.13;;;;;;;-145.79;50.09;77000.00;5260236;28;20070;-67
2023/09/14 16:21:24;;;;;;;7.78;3.45;;;;;;;-145.79;50.24;76991.53;5260451;28;20072;-68
2023/09/14 16:23:56;;;;;;;5.50;4.18;;;;;;;-145.79;50.31;77004.25;5272197;28;20029;-67
2023/09/14 16:26:27;;;;;;;3.78;3.40;;;;;;;-145.79;50.46;77008.47;5271523;28;20104;-67
2023/09/14 16:28:58;;;;;;;4.03;2.97;;;;;;;-145.79;50.83;77008.47;5270348;28;20443;-69
2023/09/14 16:31:30;;;;;;;4.05;3.10;;;;;;;-145.79;51.03;77008.47;5273099;28;20045;-68
2023/09/14 16:34:01;;;;;;;4.70;3.00;;;;;;;-145.79;50.65;77016.94;5256905;28;20452;-69
2023/09/14 16:36:32;;;;;;;5.32;3.15;;;;;;;-145.79;50.61;77016.94;5266262;28;20066;-68
2023/09/14 16:39:07;;;;;;;6.15;2.85;;;;;;;-145.79;50.50;77036.03;5269681;28;20020;-69
2023/09/14 16:41:39;;;;;;;3.13;2.83;;;;;;;-145.79;50.39;77027.56;5273207;28;20303;-70
2023/09/14 16:44:11;;;;;;;6.05;2.97;;;;;;;-145.79;50.20;77025.44;5272699;28;20116;-70
2023/09/14 16:46:43;;;;;;;3.50;3.20;;;;;;;-145.79;50.75;77025.44;5274031;28;20119;-69
2023/09/14 16:49:27;;;;;;;6.10;2.95;;;;;;;-145.79;50.80;77023.31;5263154;28;20027;-69
2023/09/14 16:51:59;;;;;;;4.13;3.20;;;;;;;-145.79;51.25;77046.63;5269322;28;20482;-70
2023/09/14 16:54:30;;;;;;;6.05;3.50;;;;;;;-145.79;51.37;77048.75;5271376;28;20028;-70
